createdAt,value
2018-11-12T00:00:14.470Z,1.90
2018-11-12T00:02:13.145Z,2.30
2018-11-12T00:03:12.906Z,2.10
2018-11-12T00:04:12.895Z,2.10
2018-11-12T00:05:12.873Z,1.90
2018-11-12T00:06:12.934Z,2.10
2018-11-12T00:07:12.869Z,1.90
2018-11-12T00:08:12.866Z,2.10
2018-11-12T00:09:14.684Z,1.90
2018-11-12T00:10:13.447Z,2.00
2018-11-12T00:11:12.881Z,2.10
2018-11-12T00:12:12.858Z,2.20
2018-11-12T00:13:13.820Z,1.90
2018-11-12T00:14:12.877Z,2.20
2018-11-12T00:15:14.084Z,2.30
2018-11-12T00:16:13.495Z,2.10
2018-11-12T00:17:12.950Z,1.90
2018-11-12T00:18:13.483Z,1.90
2018-11-12T00:19:12.850Z,2.00
2018-11-12T00:20:12.846Z,1.90
2018-11-12T00:21:12.917Z,2.10
2018-11-12T00:22:13.835Z,1.90
2018-11-12T00:23:14.647Z,2.10
2018-11-12T00:24:12.798Z,2.00
2018-11-12T00:25:12.787Z,2.10
2018-11-12T00:26:12.782Z,2.10
2018-11-12T00:27:12.819Z,2.10
2018-11-12T00:28:12.782Z,1.90
2018-11-12T00:29:12.776Z,2.20
2018-11-12T00:30:12.801Z,2.00
2018-11-12T00:31:13.316Z,2.20
2018-11-12T00:32:13.683Z,2.10
2018-11-12T00:33:12.780Z,2.00
2018-11-12T00:34:14.656Z,2.10
2018-11-12T00:35:13.212Z,1.80
2018-11-12T00:36:13.459Z,2.00
2018-11-12T00:37:12.815Z,1.90
2018-11-12T00:38:12.772Z,2.10
2018-11-12T00:39:12.844Z,2.20
2018-11-12T00:40:12.799Z,2.40
2018-11-12T00:41:12.751Z,2.00
2018-11-12T00:42:12.758Z,2.10
2018-11-12T00:43:12.715Z,1.90
2018-11-12T00:44:12.726Z,2.00
2018-11-12T00:45:13.117Z,1.90
2018-11-12T00:46:12.753Z,2.10
2018-11-12T00:47:13.435Z,1.90
2018-11-12T00:48:12.925Z,2.20
2018-11-12T00:49:14.171Z,2.20
2018-11-12T00:50:20.418Z,2.00
2018-11-12T00:51:12.803Z,2.10
2018-11-12T00:52:15.249Z,2.20
2018-11-12T00:53:17.000Z,2.10
2018-11-12T00:54:13.671Z,2.30
2018-11-12T00:55:14.104Z,2.30
2018-11-12T00:56:15.881Z,2.30
2018-11-12T00:57:14.195Z,2.00
2018-11-12T00:58:13.666Z,2.10
2018-11-12T00:59:14.154Z,2.20
2018-11-12T01:00:14.184Z,2.20
2018-11-12T01:01:14.207Z,2.10
2018-11-12T01:02:14.195Z,2.30
2018-11-12T01:03:14.010Z,2.30
2018-11-12T01:04:13.853Z,2.10
2018-11-12T01:05:13.666Z,2.00
2018-11-12T01:06:14.180Z,1.90
2018-11-12T01:07:14.184Z,2.20
2018-11-12T01:08:13.686Z,1.90
2018-11-12T01:10:13.682Z,2.20
2018-11-12T01:11:14.999Z,2.10
2018-11-12T01:12:14.227Z,2.00
2018-11-12T01:13:14.698Z,2.20
2018-11-12T01:14:14.159Z,1.90
2018-11-12T01:15:14.176Z,1.80
2018-11-12T01:16:14.265Z,1.90
2018-11-12T01:17:14.163Z,1.80
2018-11-12T01:18:16.158Z,2.00
2018-11-12T01:19:14.214Z,2.00
2018-11-12T01:20:13.753Z,2.10
2018-11-12T01:21:15.482Z,2.30
2018-11-12T01:22:13.744Z,2.20
2018-11-12T01:23:14.169Z,2.40
2018-11-12T01:24:14.166Z,1.90
2018-11-12T01:25:13.801Z,2.20
2018-11-12T01:26:14.166Z,2.20
2018-11-12T01:27:14.024Z,2.10
2018-11-12T01:28:13.667Z,2.10
2018-11-12T01:29:14.196Z,1.90
2018-11-12T01:30:13.686Z,2.00
2018-11-12T01:31:12.556Z,2.20
2018-11-12T01:32:13.657Z,2.10
2018-11-12T01:33:14.163Z,2.00
2018-11-12T01:34:13.684Z,2.00
2018-11-12T01:35:14.190Z,2.00
2018-11-12T01:36:14.186Z,1.80
2018-11-12T01:37:13.686Z,1.90
2018-11-12T01:38:14.166Z,1.90
2018-11-12T01:39:13.524Z,2.00
2018-11-12T01:40:13.684Z,1.80
2018-11-12T01:41:13.665Z,1.80
2018-11-12T01:42:14.271Z,1.80
2018-11-12T01:43:14.036Z,1.90
2018-11-12T01:44:14.168Z,2.30
2018-11-12T01:45:14.170Z,2.00
2018-11-12T01:46:14.196Z,1.70
2018-11-12T01:47:13.694Z,2.20
2018-11-12T01:48:13.676Z,2.00
2018-11-12T01:49:13.691Z,2.00
2018-11-12T01:50:14.171Z,2.10
2018-11-12T01:51:15.911Z,2.00
2018-11-12T01:52:13.514Z,2.10
2018-11-12T01:53:13.990Z,2.20
2018-11-12T01:54:14.165Z,1.90
2018-11-12T01:55:13.553Z,1.80
2018-11-12T01:56:14.187Z,1.90
2018-11-12T01:57:13.828Z,2.30
2018-11-12T01:58:13.667Z,2.20
2018-11-12T01:59:14.214Z,2.10
2018-11-12T02:00:14.191Z,2.20
2018-11-12T02:01:14.181Z,2.10
2018-11-12T02:02:13.999Z,2.50
2018-11-12T02:03:13.688Z,2.00
2018-11-12T02:04:13.526Z,2.10
2018-11-12T02:05:13.679Z,2.30
2018-11-12T02:06:14.177Z,2.30
2018-11-12T02:07:13.559Z,2.30
2018-11-12T02:08:14.195Z,2.10
2018-11-12T02:09:14.193Z,2.20
2018-11-12T02:10:16.560Z,2.50
2018-11-12T02:11:14.173Z,2.30
2018-11-12T02:12:14.180Z,2.20
2018-11-12T02:13:13.494Z,1.90
2018-11-12T02:14:13.677Z,2.20
2018-11-12T02:15:14.177Z,2.10
2018-11-12T02:16:14.219Z,2.10
2018-11-12T02:17:14.181Z,2.20
2018-11-12T02:18:14.201Z,2.00
2018-11-12T02:19:15.280Z,2.40
2018-11-12T02:20:13.734Z,2.10
2018-11-12T02:21:13.532Z,2.10
2018-11-12T02:22:13.490Z,2.10
2018-11-12T02:23:14.193Z,1.90
2018-11-12T02:24:14.203Z,1.80
2018-11-12T02:25:13.677Z,2.10
2018-11-12T02:26:14.176Z,2.00
2018-11-12T02:27:14.180Z,1.80
2018-11-12T02:28:13.705Z,1.70
2018-11-12T02:29:14.176Z,1.80
2018-11-12T02:30:14.179Z,1.70
2018-11-12T02:31:14.185Z,1.80
2018-11-12T02:32:14.222Z,1.70
2018-11-12T02:33:14.380Z,2.00
2018-11-12T02:34:14.682Z,1.80
2018-11-12T02:35:14.187Z,1.80
2018-11-12T02:36:13.936Z,1.60
2018-11-12T02:37:13.688Z,1.70
2018-11-12T02:38:14.229Z,1.60
2018-11-12T02:39:13.740Z,1.60
2018-11-12T02:40:13.368Z,1.50
2018-11-12T02:41:13.690Z,1.60
2018-11-12T02:42:14.207Z,1.60
2018-11-12T02:43:13.719Z,1.60
2018-11-12T02:44:13.733Z,1.70
2018-11-12T02:45:14.241Z,1.50
2018-11-12T02:46:14.188Z,1.50
2018-11-12T02:47:14.002Z,1.50
2018-11-12T02:48:13.735Z,1.60
2018-11-12T02:49:13.722Z,1.50
2018-11-12T02:50:13.997Z,1.60
2018-11-12T02:51:12.388Z,1.50
2018-11-12T02:52:13.399Z,1.50
2018-11-12T02:53:14.213Z,1.60
2018-11-12T02:54:13.730Z,1.40
2018-11-12T02:55:13.732Z,1.10
2018-11-12T02:56:13.994Z,1.30
2018-11-12T02:57:13.759Z,1.40
2018-11-12T02:58:13.815Z,1.40
2018-11-12T02:59:13.982Z,1.30
2018-11-12T03:00:14.205Z,1.50
2018-11-12T03:01:14.190Z,1.60
2018-11-12T03:02:15.730Z,1.50
2018-11-12T03:03:15.715Z,1.70
2018-11-12T03:04:13.725Z,1.40
2018-11-12T03:05:13.702Z,1.60
2018-11-12T03:06:15.733Z,1.30
2018-11-12T03:07:13.360Z,1.30
2018-11-12T03:08:15.695Z,1.40
2018-11-12T03:09:15.696Z,1.20
2018-11-12T03:10:13.316Z,1.40
2018-11-12T03:11:16.403Z,1.40
2018-11-12T03:12:13.731Z,1.30
2018-11-12T03:13:13.355Z,1.40
2018-11-12T03:14:13.507Z,1.30
2018-11-12T03:15:16.215Z,1.40
2018-11-12T03:16:13.328Z,1.30
2018-11-12T03:17:13.689Z,1.30
2018-11-12T03:18:13.614Z,1.30
2018-11-12T03:19:13.333Z,1.50
2018-11-12T03:20:13.687Z,1.40
2018-11-12T03:21:16.080Z,1.20
2018-11-12T03:22:13.735Z,1.10
2018-11-12T03:23:15.783Z,1.30
2018-11-12T03:24:13.741Z,1.20
2018-11-12T03:25:13.345Z,1.10
2018-11-12T03:26:15.729Z,1.30
2018-11-12T03:27:13.594Z,1.20
2018-11-12T03:28:13.213Z,1.30
2018-11-12T03:29:13.207Z,1.30
2018-11-12T03:30:13.700Z,1.10
2018-11-12T03:31:13.205Z,1.20
2018-11-12T03:32:13.698Z,1.30
2018-11-12T03:33:13.788Z,1.30
2018-11-12T03:34:13.191Z,1.00
2018-11-12T03:35:13.725Z,1.20
2018-11-12T03:36:13.745Z,1.40
2018-11-12T03:37:13.257Z,1.20
2018-11-12T03:38:13.717Z,1.40
2018-11-12T03:39:13.699Z,1.30
2018-11-12T03:40:13.258Z,1.30
2018-11-12T03:41:13.699Z,1.30
2018-11-12T03:42:13.588Z,1.40
2018-11-12T03:43:13.217Z,1.20
2018-11-12T03:44:13.435Z,1.20
2018-11-12T03:45:13.699Z,1.30
2018-11-12T03:46:13.205Z,1.30
2018-11-12T03:47:13.700Z,1.50
2018-11-12T03:48:13.707Z,1.20
2018-11-12T03:49:13.204Z,1.20
2018-11-12T03:50:13.733Z,1.50
2018-11-12T03:51:13.433Z,1.40
2018-11-12T03:52:13.198Z,1.20
2018-11-12T03:53:13.740Z,1.10
2018-11-12T03:54:13.403Z,1.20
2018-11-12T03:55:13.197Z,1.10
2018-11-12T03:56:13.483Z,1.30
2018-11-12T03:57:13.716Z,1.20
2018-11-12T03:58:13.211Z,1.30
2018-11-12T03:59:13.723Z,1.20
2018-11-12T04:00:13.903Z,1.40
2018-11-12T04:01:13.281Z,1.30
2018-11-12T04:02:13.748Z,1.10
2018-11-12T04:03:13.703Z,1.40
2018-11-12T04:04:13.743Z,1.20
2018-11-12T04:05:13.754Z,1.30
2018-11-12T04:06:13.720Z,1.30
2018-11-12T04:07:13.725Z,1.40
2018-11-12T04:08:13.723Z,1.30
2018-11-12T04:09:13.708Z,1.30
2018-11-12T04:10:13.710Z,1.10
2018-11-12T04:11:13.710Z,1.20
2018-11-12T04:12:13.702Z,1.30
2018-11-12T04:13:13.704Z,1.10
2018-11-12T04:14:13.702Z,1.20
2018-11-12T04:15:13.460Z,1.00
2018-11-12T04:16:13.393Z,1.30
2018-11-12T04:17:13.748Z,1.10
2018-11-12T04:18:13.439Z,1.10
2018-11-12T04:19:13.753Z,1.30
2018-11-12T04:20:13.219Z,1.20
2018-11-12T04:21:13.205Z,1.20
2018-11-12T04:22:13.741Z,1.30
2018-11-12T04:23:13.746Z,1.00
2018-11-12T04:24:13.733Z,1.30
2018-11-12T04:25:13.747Z,1.30
2018-11-12T04:26:13.752Z,1.10
2018-11-12T04:27:13.757Z,1.10
2018-11-12T04:28:13.064Z,1.10
2018-11-12T04:29:13.504Z,1.20
2018-11-12T04:30:13.466Z,1.30
2018-11-12T04:31:15.238Z,1.20
2018-11-12T04:32:13.486Z,1.10
2018-11-12T04:33:13.506Z,1.20
2018-11-12T04:34:13.479Z,1.20
2018-11-12T04:35:13.502Z,1.30
2018-11-12T04:36:13.743Z,1.00
2018-11-12T04:37:15.266Z,1.20
2018-11-12T04:38:13.424Z,1.00
2018-11-12T04:39:13.702Z,1.20
2018-11-12T04:40:13.733Z,1.20
2018-11-12T04:41:13.424Z,1.20
2018-11-12T04:42:13.408Z,1.20
2018-11-12T04:43:13.464Z,1.20
2018-11-12T04:44:13.454Z,1.30
2018-11-12T04:45:13.134Z,1.10
2018-11-12T04:46:13.756Z,1.20
2018-11-12T04:47:13.716Z,1.10
2018-11-12T04:48:13.720Z,0.90
2018-11-12T04:49:13.271Z,1.20
2018-11-12T04:50:13.652Z,1.20
2018-11-12T04:51:13.448Z,1.00
2018-11-12T04:52:13.730Z,1.20
2018-11-12T04:53:13.484Z,1.20
2018-11-12T04:54:13.741Z,1.00
2018-11-12T04:55:13.774Z,1.30
2018-11-12T04:56:13.770Z,1.30
2018-11-12T04:57:13.426Z,1.10
2018-11-12T04:58:14.026Z,1.20
2018-11-12T04:59:13.135Z,1.10
2018-11-12T05:00:13.726Z,1.30
2018-11-12T05:01:13.296Z,1.10
2018-11-12T05:02:14.051Z,1.00
2018-11-12T05:03:13.324Z,1.10
2018-11-12T05:04:13.853Z,1.20
2018-11-12T05:05:13.124Z,1.50
2018-11-12T05:06:13.789Z,1.30
2018-11-12T05:07:13.523Z,1.20
2018-11-12T05:08:14.045Z,1.20
2018-11-12T05:09:13.834Z,1.30
2018-11-12T05:10:13.831Z,1.40
2018-11-12T05:11:14.040Z,1.50
2018-11-12T05:12:13.560Z,1.40
2018-11-12T05:13:13.641Z,1.50
2018-11-12T05:14:13.570Z,1.40
2018-11-12T05:15:13.186Z,1.70
2018-11-12T05:16:13.907Z,1.80
2018-11-12T05:17:13.667Z,1.70
2018-11-12T05:18:14.050Z,1.90
2018-11-12T05:19:13.690Z,1.90
2018-11-12T05:20:14.054Z,2.00
2018-11-12T05:21:14.076Z,2.20
2018-11-12T05:22:13.763Z,1.80
2018-11-12T05:23:14.086Z,1.80
2018-11-12T05:24:12.927Z,1.80
2018-11-12T05:25:12.885Z,2.10
2018-11-12T05:26:13.523Z,1.80
2018-11-12T05:27:12.935Z,1.50
2018-11-12T05:28:13.268Z,1.90
2018-11-12T05:29:15.034Z,1.50
2018-11-12T05:30:13.216Z,1.60
2018-11-12T05:31:13.200Z,1.60
2018-11-12T05:32:13.266Z,1.60
2018-11-12T05:33:13.388Z,1.60
2018-11-12T05:34:13.268Z,1.90
2018-11-12T05:35:13.251Z,1.70
2018-11-12T05:36:13.501Z,1.70
2018-11-12T05:37:13.766Z,1.80
2018-11-12T05:38:15.263Z,1.80
2018-11-12T05:39:12.858Z,2.10
2018-11-12T05:40:13.215Z,2.00
2018-11-12T05:41:13.456Z,2.00
2018-11-12T05:42:13.592Z,2.00
2018-11-12T05:43:13.206Z,2.20
2018-11-12T05:44:13.159Z,2.40
2018-11-12T05:45:13.752Z,2.40
2018-11-12T05:46:13.768Z,2.00
2018-11-12T05:47:13.656Z,2.10
2018-11-12T05:48:13.769Z,2.40
2018-11-12T05:49:15.324Z,2.20
2018-11-12T05:50:13.462Z,2.10
2018-11-12T05:51:13.817Z,2.50
2018-11-12T05:53:12.822Z,2.00
2018-11-12T05:54:13.269Z,2.00
2018-11-12T05:55:13.771Z,2.10
2018-11-12T05:56:15.237Z,2.70
2018-11-12T05:57:13.138Z,2.40
2018-11-12T05:58:15.022Z,2.50
2018-11-12T05:59:13.234Z,2.40
2018-11-12T06:00:13.231Z,2.00
2018-11-12T06:01:13.240Z,2.60
2018-11-12T06:02:13.146Z,2.70
2018-11-12T06:03:13.555Z,2.50
2018-11-12T06:04:13.588Z,2.40
2018-11-12T06:05:13.293Z,2.50
2018-11-12T06:06:13.234Z,2.70
2018-11-12T06:07:13.718Z,3.00
2018-11-12T06:08:13.086Z,2.90
2018-11-12T06:09:13.799Z,2.80
2018-11-12T06:10:13.757Z,3.00
2018-11-12T06:11:13.260Z,3.20
2018-11-12T06:12:12.788Z,3.10
2018-11-12T06:13:12.795Z,2.80
2018-11-12T06:14:12.739Z,2.90
2018-11-12T06:15:13.278Z,3.20
2018-11-12T06:16:13.079Z,3.10
2018-11-12T06:17:13.241Z,3.00
2018-11-12T06:18:13.119Z,2.90
2018-11-12T06:19:14.907Z,2.60
2018-11-12T06:20:13.185Z,3.10
2018-11-12T06:21:13.340Z,2.70
2018-11-12T06:22:13.722Z,2.80
2018-11-12T06:23:13.208Z,2.90
2018-11-12T06:24:13.599Z,2.90
2018-11-12T06:25:13.737Z,3.00
2018-11-12T06:26:13.024Z,3.10
2018-11-12T06:27:13.295Z,3.20
2018-11-12T06:28:13.108Z,3.00
2018-11-12T06:29:13.572Z,3.00
2018-11-12T06:30:13.289Z,2.90
2018-11-12T06:31:13.113Z,3.10
2018-11-12T06:32:12.744Z,3.40
2018-11-12T06:33:13.464Z,3.60
2018-11-12T06:34:13.585Z,3.20
2018-11-12T06:36:12.790Z,3.20
2018-11-12T06:37:14.547Z,2.80
2018-11-12T06:38:13.343Z,2.90
2018-11-12T06:39:13.291Z,2.90
2018-11-12T06:40:13.718Z,3.30
2018-11-12T06:41:13.479Z,3.90
2018-11-12T06:42:19.093Z,3.30
2018-11-12T06:43:13.668Z,3.60
2018-11-12T06:44:13.248Z,3.40
2018-11-12T06:45:13.242Z,3.60
2018-11-12T06:46:13.244Z,10.00
2018-11-12T06:47:13.673Z,16.30
2018-11-12T06:49:46.669Z,4.50
2018-11-12T06:50:46.667Z,4.20
2018-11-12T06:52:41.108Z,3.60
2018-11-12T06:54:56.314Z,3.30
2018-11-12T06:55:56.034Z,3.20
2018-11-12T06:57:50.615Z,2.90
2018-11-12T06:58:50.487Z,2.90
2018-11-12T07:00:45.800Z,3.30
2018-11-12T07:01:45.351Z,3.20
2018-11-12T07:03:39.475Z,3.00
2018-11-12T07:04:40.391Z,3.30
2018-11-12T07:06:35.023Z,3.00
2018-11-12T07:07:34.510Z,3.20
2018-11-12T07:09:28.442Z,3.20
2018-11-12T07:10:29.119Z,3.30
2018-11-12T07:12:24.013Z,3.30
2018-11-12T07:13:24.406Z,3.50
2018-11-12T07:15:17.659Z,3.60
2018-11-12T07:16:18.980Z,3.90
2018-11-12T07:18:13.848Z,3.30
2018-11-12T07:19:13.707Z,3.20
2018-11-12T07:22:07.899Z,3.50
2018-11-12T07:24:02.671Z,3.70
2018-11-12T07:25:02.070Z,3.50
2018-11-12T07:26:57.456Z,3.80
2018-11-12T07:27:57.307Z,3.50
2018-11-12T07:29:51.443Z,4.20
2018-11-12T07:30:52.066Z,4.30
2018-11-12T07:32:45.859Z,4.20
2018-11-12T07:33:46.148Z,3.90
2018-11-12T07:35:40.584Z,3.80
2018-11-12T07:36:40.771Z,4.30
2018-11-12T07:38:35.282Z,3.90
2018-11-12T07:39:35.744Z,4.60
2018-11-12T07:41:33.633Z,4.10
2018-11-12T07:42:31.182Z,4.00
2018-11-12T07:44:25.275Z,4.50
2018-11-12T07:45:25.729Z,4.40
2018-11-12T07:47:19.467Z,3.90
2018-11-12T07:48:19.993Z,3.90
2018-11-12T07:50:17.634Z,4.00
2018-11-12T07:51:14.035Z,3.90
2018-11-12T07:52:14.386Z,3.90
2018-11-12T07:53:14.580Z,4.10
2018-11-12T07:56:28.908Z,4.90
2018-11-12T07:57:28.729Z,4.50
2018-11-12T07:59:23.670Z,3.80
2018-11-12T08:00:24.093Z,3.70
2018-11-12T08:02:18.427Z,3.90
2018-11-12T08:03:24.424Z,3.40
2018-11-12T08:04:18.544Z,3.50
2018-11-12T08:05:18.010Z,3.80
2018-11-12T08:06:18.777Z,3.60
2018-11-12T08:07:18.056Z,3.80
2018-11-12T08:08:18.210Z,3.30
2018-11-12T08:09:19.099Z,3.70
2018-11-12T08:12:08.393Z,3.80
2018-11-12T08:12:54.006Z,3.40
2018-11-12T08:13:56.505Z,3.40
2018-11-12T08:14:55.076Z,3.30
2018-11-12T08:15:53.508Z,3.60
2018-11-12T08:16:55.948Z,3.70
2018-11-12T08:17:53.927Z,4.00
2018-11-12T08:18:54.412Z,3.40
2018-11-12T08:20:14.460Z,3.60
2018-11-12T08:20:56.005Z,3.50
2018-11-12T08:21:53.950Z,3.60
2018-11-12T08:22:53.555Z,3.70
2018-11-12T08:23:53.582Z,3.90
2018-11-12T08:24:53.499Z,4.10
2018-11-12T08:25:55.515Z,4.20
2018-11-12T08:26:54.263Z,4.10
2018-11-12T08:27:53.633Z,4.60
2018-11-12T08:29:21.302Z,4.30
2018-11-12T08:29:54.185Z,4.20
2018-11-12T08:30:53.724Z,4.40
2018-11-12T08:31:54.005Z,4.20
2018-11-12T08:32:53.953Z,4.40
2018-11-12T08:33:54.319Z,4.40
2018-11-12T08:34:53.086Z,4.70
2018-11-12T08:35:53.749Z,4.00
2018-11-12T08:36:54.028Z,4.70
2018-11-12T08:37:53.714Z,4.40
2018-11-12T08:38:53.831Z,4.30
2018-11-12T08:39:53.170Z,4.10
2018-11-12T08:40:54.130Z,3.70
2018-11-12T08:41:53.892Z,3.80
2018-11-12T08:42:53.382Z,4.20
2018-11-12T08:43:54.019Z,4.30
2018-11-12T08:44:55.496Z,4.20
2018-11-12T08:45:54.029Z,3.80
2018-11-12T08:48:27.418Z,4.10
2018-11-12T08:49:27.498Z,4.10
2018-11-12T08:51:21.911Z,4.00
2018-11-12T08:52:21.775Z,4.00
2018-11-12T08:54:16.827Z,4.10
2018-11-12T08:55:16.880Z,4.20
2018-11-12T08:57:10.660Z,3.90
2018-11-12T08:58:12.158Z,3.80
2018-11-12T09:00:07.065Z,3.30
2018-11-12T09:02:19.380Z,3.70
2018-11-12T09:03:20.021Z,3.40
2018-11-12T09:05:15.404Z,3.30
2018-11-12T09:06:14.649Z,3.40
2018-11-12T09:08:08.757Z,3.50
2018-11-12T09:09:09.338Z,3.50
2018-11-12T09:12:38.181Z,3.60
2018-11-12T09:13:37.796Z,3.60
2018-11-12T09:15:32.922Z,3.80
2018-11-12T09:16:33.367Z,4.40
2018-11-12T09:18:27.592Z,3.70
2018-11-12T09:20:41.501Z,3.60
2018-11-12T09:22:55.946Z,3.70
2018-11-12T09:23:55.791Z,3.70
2018-11-12T09:25:50.252Z,3.50
2018-11-12T09:26:51.102Z,3.60
2018-11-12T09:28:45.604Z,3.70
2018-11-12T09:29:45.510Z,3.60
2018-11-12T09:31:39.990Z,3.60
2018-11-12T09:34:57.109Z,3.90
2018-11-12T09:36:49.386Z,3.60
2018-11-12T09:37:49.799Z,3.80
2018-11-12T09:39:45.454Z,3.50
2018-11-12T09:40:43.845Z,3.80
2018-11-12T09:42:37.606Z,3.60
2018-11-12T09:43:46.550Z,3.70
2018-11-12T09:45:32.109Z,3.60
2018-11-12T09:46:32.093Z,3.40
2018-11-12T09:48:26.489Z,3.30
2018-11-12T09:51:22.934Z,4.00
2018-11-12T09:52:23.608Z,4.10
2018-11-12T09:53:23.475Z,3.90
2018-11-12T09:55:57.058Z,4.90
2018-11-12T09:56:59.333Z,4.70
2018-11-12T09:59:02.752Z,4.30
2018-11-12T10:00:03.289Z,3.70
2018-11-12T10:02:25.831Z,4.10
2018-11-12T10:02:57.514Z,3.90
2018-11-12T10:04:58.195Z,4.90
2018-11-12T10:07:32.371Z,3.70
2018-11-12T10:08:28.637Z,3.70
2018-11-12T10:10:40.319Z,3.80
2018-11-12T10:11:42.368Z,3.70
2018-11-12T10:13:35.129Z,3.40
2018-11-12T10:14:36.827Z,3.10
2018-11-12T10:15:36.862Z,3.80
2018-11-12T10:16:35.822Z,3.70
2018-11-12T10:17:40.372Z,3.70
2018-11-12T10:18:33.585Z,3.80
2018-11-12T10:19:54.265Z,3.50
2018-11-12T10:20:33.747Z,3.80
2018-11-12T10:21:56.377Z,3.50
2018-11-12T10:22:39.126Z,3.90
2018-11-12T10:23:33.948Z,3.60
2018-11-12T10:24:40.147Z,3.70
2018-11-12T10:25:33.173Z,3.70
2018-11-12T10:26:34.037Z,3.80
2018-11-12T10:30:39.487Z,3.80
2018-11-12T10:31:40.245Z,3.70
2018-11-12T10:33:35.277Z,3.60
2018-11-12T10:35:49.627Z,3.90
2018-11-12T10:38:03.610Z,3.70
2018-11-12T10:39:05.030Z,3.30
2018-11-12T10:40:59.265Z,3.70
2018-11-12T10:41:59.525Z,3.70
2018-11-12T10:43:54.703Z,4.20
2018-11-12T10:46:09.113Z,4.30
2018-11-12T10:47:11.433Z,3.70
2018-11-12T10:49:16.254Z,4.30
2018-11-12T10:50:16.493Z,4.00
2018-11-12T10:51:16.787Z,4.40
2018-11-12T10:52:16.728Z,4.10
2018-11-12T10:53:17.085Z,4.50
2018-11-12T10:54:17.311Z,4.60
2018-11-12T10:55:16.787Z,4.60
2018-11-12T10:56:17.134Z,5.20
2018-11-12T10:57:16.726Z,5.00
2018-11-12T10:58:18.834Z,5.20
2018-11-12T10:59:16.752Z,4.80
2018-11-12T11:00:17.260Z,5.30
2018-11-12T11:01:16.706Z,4.80
2018-11-12T11:02:17.109Z,5.60
2018-11-12T11:03:20.424Z,5.10
2018-11-12T11:04:17.150Z,5.50
2018-11-12T11:05:23.258Z,5.30
2018-11-12T11:06:17.131Z,5.70
2018-11-12T11:07:16.756Z,5.10
2018-11-12T11:08:16.278Z,4.90
2018-11-12T11:09:17.160Z,5.30
2018-11-12T11:10:16.808Z,5.00
2018-11-12T11:11:16.722Z,5.10
2018-11-12T11:12:16.715Z,4.90
2018-11-12T11:13:17.227Z,5.20
2018-11-12T11:14:16.803Z,5.40
2018-11-12T11:15:17.149Z,5.40
2018-11-12T11:16:16.673Z,5.10
2018-11-12T11:17:16.781Z,5.60
2018-11-12T11:18:16.821Z,5.90
2018-11-12T11:19:16.689Z,5.90
2018-11-12T11:20:16.681Z,5.50
2018-11-12T11:21:17.323Z,6.00
2018-11-12T11:22:16.657Z,5.70
2018-11-12T11:23:16.616Z,6.00
2018-11-12T11:24:16.783Z,6.10
2018-11-12T11:25:16.760Z,5.90
2018-11-12T11:26:16.760Z,5.90
2018-11-12T11:27:16.222Z,6.20
2018-11-12T11:28:16.780Z,6.10
2018-11-12T11:29:16.537Z,5.90
2018-11-12T11:30:16.721Z,6.70
2018-11-12T11:31:16.827Z,6.50
2018-11-12T11:32:16.466Z,6.20
2018-11-12T11:34:22.811Z,6.70
2018-11-12T11:35:16.585Z,6.40
2018-11-12T11:36:17.089Z,7.00
2018-11-12T11:37:16.708Z,6.60
2018-11-12T11:38:24.742Z,6.60
2018-11-12T11:39:17.090Z,7.00
2018-11-12T11:40:16.815Z,7.00
2018-11-12T11:41:16.492Z,7.80
2018-11-12T11:42:16.776Z,7.60
2018-11-12T11:43:16.812Z,8.80
2018-11-12T11:44:16.582Z,8.40
2018-11-12T11:45:17.531Z,7.80
2018-11-12T11:46:16.137Z,7.80
2018-11-12T11:47:17.163Z,8.80
2018-11-12T11:48:17.307Z,8.60
2018-11-12T11:49:16.993Z,8.10
2018-11-12T11:50:16.800Z,8.40
2018-11-12T11:51:16.722Z,8.10
2018-11-12T11:52:16.861Z,9.50
2018-11-12T11:53:17.128Z,8.50
2018-11-12T11:54:16.304Z,9.30
2018-11-12T11:55:16.746Z,9.70
2018-11-12T11:56:16.670Z,9.10
2018-11-12T11:57:17.137Z,8.80
2018-11-12T11:58:16.680Z,9.10
2018-11-12T11:59:23.302Z,10.70
2018-11-12T12:00:17.594Z,10.20
2018-11-12T12:01:16.642Z,9.70
2018-11-12T12:02:16.890Z,9.30
2018-11-12T12:03:17.303Z,9.40
2018-11-12T12:04:16.783Z,9.00
2018-11-12T12:05:16.810Z,8.80
2018-11-12T12:06:16.770Z,8.60
2018-11-12T12:07:40.280Z,9.30
2018-11-12T12:08:16.779Z,8.80
2018-11-12T12:09:17.365Z,9.10
2018-11-12T12:10:16.923Z,9.30
2018-11-12T12:11:16.775Z,9.80
2018-11-12T12:12:16.397Z,10.00
2018-11-12T12:13:16.855Z,9.80
2018-11-12T12:14:16.775Z,10.10
2018-11-12T12:15:19.055Z,9.40
2018-11-12T12:16:17.246Z,9.80
2018-11-12T12:17:16.747Z,9.60
2018-11-12T12:18:16.709Z,10.30
2018-11-12T12:19:16.795Z,10.00
2018-11-12T12:20:16.777Z,10.00
2018-11-12T12:22:18.777Z,10.10
2018-11-12T12:23:16.227Z,10.70
2018-11-12T12:24:22.936Z,10.20
2018-11-12T12:25:16.118Z,10.40
2018-11-12T12:26:16.491Z,10.20
2018-11-12T12:28:16.245Z,11.60
2018-11-12T12:29:16.587Z,11.10
2018-11-12T12:30:16.650Z,11.00
2018-11-12T12:31:16.431Z,11.40
2018-11-12T12:32:22.577Z,11.30
2018-11-12T12:33:16.544Z,11.00
2018-11-12T12:35:16.282Z,11.60
2018-11-12T12:36:17.359Z,12.30
2018-11-12T12:37:16.804Z,11.60
2018-11-12T12:38:16.819Z,12.10
2018-11-12T12:39:16.584Z,10.80
2018-11-12T12:40:16.799Z,11.80
2018-11-12T12:41:16.303Z,12.00
2018-11-12T12:42:16.834Z,11.20
2018-11-12T12:43:16.295Z,11.70
2018-11-12T12:44:16.920Z,11.70
2018-11-12T12:45:44.477Z,11.10
2018-11-12T12:46:37.200Z,11.40
2018-11-12T12:47:16.740Z,11.10
2018-11-12T12:48:16.779Z,11.50
2018-11-12T12:49:16.811Z,11.40
2018-11-12T12:50:16.279Z,11.30
2018-11-12T12:51:16.560Z,11.20
2018-11-12T12:52:23.280Z,11.20
2018-11-12T12:53:16.239Z,10.40
2018-11-12T12:54:17.918Z,11.30
2018-11-12T12:55:37.464Z,11.10
2018-11-12T12:56:16.794Z,11.50
2018-11-12T12:57:16.813Z,11.30
2018-11-12T12:58:46.312Z,11.20
2018-11-12T12:59:17.110Z,10.90
2018-11-12T13:00:16.811Z,11.30
2018-11-12T13:01:16.557Z,11.10
2018-11-12T13:02:16.429Z,10.60
2018-11-12T13:03:38.390Z,10.80
2018-11-12T13:04:16.283Z,11.70
2018-11-12T13:05:16.133Z,11.60
2018-11-12T13:07:53.823Z,11.50
2018-11-12T13:08:14.910Z,11.60
2018-11-12T13:09:23.367Z,12.70
2018-11-12T13:10:37.760Z,13.10
2018-11-12T13:11:19.397Z,12.30
2018-11-12T13:13:16.307Z,11.80
2018-11-12T13:14:21.179Z,12.70
2018-11-12T13:15:16.311Z,13.80
2018-11-12T13:16:16.811Z,13.60
2018-11-12T13:17:20.288Z,14.00
2018-11-12T13:18:16.344Z,14.80
2018-11-12T13:19:16.315Z,15.50
2018-11-12T13:20:16.302Z,14.70
2018-11-12T13:21:17.080Z,15.10
2018-11-12T13:22:16.308Z,14.60
2018-11-12T13:23:15.926Z,14.20
2018-11-12T13:24:19.298Z,14.80
2018-11-12T13:25:22.339Z,14.30
2018-11-12T13:26:22.399Z,14.10
2018-11-12T13:27:16.846Z,14.50
2018-11-12T13:28:16.236Z,14.10
2018-11-12T13:29:16.304Z,14.40
2018-11-12T13:30:19.134Z,13.60
2018-11-12T13:31:17.307Z,13.60
2018-11-12T13:32:16.305Z,13.80
2018-11-12T13:33:18.845Z,14.30
2018-11-12T13:34:24.803Z,13.80
2018-11-12T13:35:15.913Z,14.80
2018-11-12T13:37:54.429Z,14.60
2018-11-12T13:38:50.453Z,14.70
2018-11-12T13:41:03.473Z,14.50
2018-11-12T13:43:13.466Z,13.60
2018-11-12T13:44:13.546Z,13.70
2018-11-12T13:46:44.956Z,13.40
2018-11-12T13:47:07.713Z,13.40
2018-11-12T13:49:03.179Z,13.50
2018-11-12T13:50:03.041Z,13.10
2018-11-12T13:52:17.729Z,14.10
2018-11-12T13:52:57.247Z,13.90
2018-11-12T13:54:52.245Z,13.80
2018-11-12T13:55:52.511Z,14.00
2018-11-12T13:59:33.931Z,12.90
2018-11-12T14:00:33.517Z,12.50
2018-11-12T14:02:27.577Z,13.40
2018-11-12T14:03:28.040Z,12.90
2018-11-12T14:05:21.963Z,13.00
2018-11-12T14:06:23.148Z,12.60
2018-11-12T14:08:17.422Z,11.70
2018-11-12T14:09:17.194Z,11.60
2018-11-12T14:11:11.584Z,11.30
2018-11-12T14:12:12.319Z,11.20
2018-11-12T14:17:14.806Z,11.00
2018-11-12T14:18:14.675Z,10.30
2018-11-12T14:20:09.206Z,11.00
2018-11-12T14:21:09.105Z,10.60
2018-11-12T14:23:03.680Z,10.70
2018-11-12T14:24:04.202Z,10.10
2018-11-12T14:26:23.185Z,9.50
2018-11-12T14:26:57.613Z,10.50
2018-11-12T14:28:52.786Z,9.70
2018-11-12T14:29:53.121Z,9.40
2018-11-12T14:33:34.838Z,9.30
2018-11-12T14:36:00.734Z,8.90
2018-11-12T14:36:48.839Z,9.70
2018-11-12T14:38:43.939Z,9.60
2018-11-12T14:40:59.722Z,10.30
2018-11-12T14:42:00.260Z,10.40
2018-11-12T14:43:53.651Z,10.10
2018-11-12T14:44:53.762Z,10.10
2018-11-12T14:46:50.840Z,10.40
2018-11-12T14:47:50.441Z,10.50
2018-11-12T14:49:44.124Z,11.40
2018-11-12T14:50:44.171Z,11.80
2018-11-12T14:52:38.274Z,11.20
2018-11-12T14:54:52.829Z,12.80
2018-11-12T14:55:53.094Z,12.80
2018-11-12T14:57:47.479Z,13.00
2018-11-12T14:58:47.131Z,13.30
2018-11-12T15:00:45.461Z,13.60
2018-11-12T15:03:06.558Z,14.40
2018-11-12T15:03:57.498Z,14.60
2018-11-12T15:05:51.686Z,14.60
2018-11-12T15:06:51.211Z,14.70
2018-11-12T15:09:00.713Z,15.20
2018-11-12T15:09:45.761Z,15.30
2018-11-12T15:11:41.989Z,15.10
2018-11-12T15:12:40.464Z,14.50
2018-11-12T15:14:33.962Z,14.30
2018-11-12T15:15:36.019Z,14.20
2018-11-12T15:17:28.635Z,15.30